Terminal Aerodrome Forecast
Issued by NWS

Home | Current Version | Previous Version | Text Only | Print | Product List | Glossary On
Versions: 1 2 3 4 5 6 7 8 9 10 11 12 13 14 15 16
000
FTUS44 KBMX 280500
TAFANB
TAF
KANB 280527Z 2806/2906 22006KT P6SM SCT250
      TEMPO 2808/2810 4SM BR
     FM281000 24006KT P6SM VCSH BKN030 BKN070
     FM281600 31012KT P6SM SCT030 BKN070
     FM290100 33005KT P6SM SKC=

USA.gov is the U.S. government's official web portal to all federal, state and local government web resources and services.